createdAt,value
2019-04-05T00:00:48.099Z,101368.73
2019-04-05T00:03:19.793Z,101374.91
2019-04-05T00:05:51.452Z,101372.34
2019-04-05T00:08:23.207Z,101375.34
2019-04-05T00:10:54.885Z,101376.23
2019-04-05T00:13:27.751Z,101379.81
2019-04-05T00:15:59.306Z,101377.33
2019-04-05T00:18:30.982Z,101381.36
2019-04-05T00:21:02.629Z,101376.67
2019-04-05T00:23:34.281Z,101378.90
2019-04-05T00:26:06.149Z,101387.09
2019-04-05T00:28:37.722Z,101382.41
2019-04-05T00:31:09.360Z,101378.95
2019-04-05T00:33:40.912Z,101383.70
2019-04-05T00:36:12.678Z,101388.47
2019-04-05T00:38:44.125Z,101385.52
2019-04-05T00:41:15.694Z,101381.19
2019-04-05T00:43:47.459Z,101386.86
2019-04-05T00:46:19.115Z,101386.50
2019-04-05T00:48:50.758Z,101392.62
2019-04-05T00:51:22.619Z,101387.62
2019-04-05T00:53:53.959Z,101387.31
2019-04-05T00:56:26.753Z,101383.56
2019-04-05T00:58:58.106Z,101385.41
2019-04-05T01:01:29.663Z,101385.45
2019-04-05T01:04:01.332Z,101386.88
2019-04-05T01:06:32.996Z,101387.38
2019-04-05T01:09:06.248Z,101392.16
2019-04-05T01:11:37.620Z,101385.77
2019-04-05T01:14:09.187Z,101393.12
2019-04-05T01:16:40.936Z,101394.02
2019-04-05T01:19:12.737Z,101393.72
2019-04-05T01:21:46.301Z,101392.80
2019-04-05T01:24:18.062Z,101391.82
2019-04-05T01:26:49.400Z,101391.33
2019-04-05T01:29:21.071Z,101390.45
2019-04-05T01:31:52.831Z,101392.61
2019-04-05T01:34:24.691Z,101392.16
2019-04-05T01:36:56.245Z,101391.62
2019-04-05T01:39:28.009Z,101390.33
2019-04-05T01:41:59.769Z,101396.30
2019-04-05T01:44:31.323Z,101397.55
2019-04-05T01:47:03.030Z,101386.80
2019-04-05T01:49:34.654Z,101397.23
2019-04-05T01:52:06.498Z,101396.92
2019-04-05T01:54:38.066Z,101397.42
2019-04-05T01:57:09.719Z,101395.39
2019-04-05T01:59:42.511Z,101402.84
2019-04-05T02:02:14.258Z,101407.22
2019-04-05T02:04:45.813Z,101402.09
2019-04-05T02:07:17.471Z,101402.58
2019-04-05T02:09:49.335Z,101411.20
2019-04-05T02:12:20.787Z,101411.28
2019-04-05T02:14:52.272Z,101405.22
2019-04-05T02:17:23.997Z,101404.91
2019-04-05T02:19:55.763Z,101407.88
2019-04-05T02:22:27.420Z,101415.33
2019-04-05T02:24:58.977Z,101428.38
2019-04-05T02:27:30.846Z,101436.96
2019-04-05T02:30:02.392Z,101441.38
2019-04-05T02:32:34.256Z,101430.30
2019-04-05T02:35:06.736Z,101433.70
2019-04-05T02:37:38.182Z,101436.67
2019-04-05T02:40:14.501Z,101438.39
2019-04-05T02:42:48.340Z,101440.06
2019-04-05T02:45:20.114Z,101436.28
2019-04-05T02:47:54.003Z,101451.84
2019-04-05T02:50:26.067Z,101449.30
2019-04-05T02:52:59.603Z,101451.98
2019-04-05T02:55:31.045Z,101453.78
2019-04-05T02:58:02.712Z,101453.52
2019-04-05T03:00:34.463Z,101443.37
2019-04-05T03:03:06.162Z,101460.64
2019-04-05T03:05:37.887Z,101461.19
2019-04-05T03:08:09.749Z,101467.31
2019-04-05T03:11:03.835Z,101465.72
2019-04-05T03:13:36.598Z,101468.83
2019-04-05T03:16:12.862Z,101475.78
2019-04-05T03:18:47.318Z,101475.98
2019-04-05T03:21:19.038Z,101476.86
2019-04-05T03:23:50.731Z,101484.56
2019-04-05T03:26:23.378Z,101480.41
2019-04-05T03:28:55.071Z,101485.04
2019-04-05T03:31:27.114Z,101485.75
2019-04-05T03:33:58.769Z,101495.23
2019-04-05T03:36:30.622Z,101496.91
2019-04-05T03:39:02.111Z,101503.80
2019-04-05T03:41:34.261Z,101505.09
2019-04-05T03:44:06.419Z,101512.33
2019-04-05T03:46:37.773Z,101514.91
2019-04-05T03:49:09.233Z,101519.56
2019-04-05T03:51:40.877Z,101520.35
2019-04-05T03:54:12.432Z,101517.19
2019-04-05T03:56:44.197Z,101523.94
2019-04-05T03:59:17.299Z,101521.13
2019-04-05T04:01:48.939Z,101530.44
2019-04-05T04:04:20.631Z,101530.61
2019-04-05T04:06:52.366Z,101528.17
2019-04-05T04:09:24.015Z,101528.27
2019-04-05T04:11:55.480Z,101535.75
2019-04-05T04:14:27.329Z,101536.63
2019-04-05T04:17:11.514Z,101534.59
2019-04-05T04:19:33.612Z,101540.98
2019-04-05T04:22:11.110Z,101541.89
2019-04-05T04:24:42.661Z,101545.41
2019-04-05T04:27:14.317Z,101539.78
2019-04-05T04:29:45.809Z,101544.09
2019-04-05T04:32:17.740Z,101548.42
2019-04-05T04:34:49.188Z,101550.06
2019-04-05T04:37:20.770Z,101544.32
2019-04-05T04:39:52.603Z,101539.36
2019-04-05T04:42:24.167Z,101540.14
2019-04-05T04:44:55.843Z,101541.96
2019-04-05T04:47:27.633Z,101542.78
2019-04-05T04:49:59.340Z,101543.98
2019-04-05T04:52:31.576Z,101534.32
2019-04-05T04:55:03.089Z,101547.39
2019-04-05T04:57:34.918Z,101543.30
2019-04-05T05:00:06.689Z,101548.27
2019-04-05T05:02:38.416Z,101544.83
2019-04-05T05:05:10.209Z,101546.34
2019-04-05T05:07:41.974Z,101548.20
2019-04-05T05:10:13.738Z,101546.11
2019-04-05T05:12:45.385Z,101555.41
2019-04-05T05:15:18.276Z,101554.36
2019-04-05T05:17:58.421Z,101551.26
2019-04-05T05:20:22.815Z,101557.22
2019-04-05T05:22:56.011Z,101551.65
2019-04-05T05:25:27.767Z,101546.35
2019-04-05T05:28:00.549Z,101550.38
2019-04-05T05:30:33.030Z,101551.58
2019-04-05T05:33:04.585Z,101549.62
2019-04-05T05:35:36.247Z,101548.34
2019-04-05T05:38:07.801Z,101548.58
2019-04-05T05:40:39.557Z,101549.33
2019-04-05T05:43:11.321Z,101549.66
2019-04-05T05:45:42.871Z,101552.40
2019-04-05T05:48:14.737Z,101552.27
2019-04-05T05:50:46.493Z,101549.22
2019-04-05T05:53:17.816Z,101549.86
2019-04-05T05:55:49.609Z,101550.80
2019-04-05T05:58:21.223Z,101560.92
2019-04-05T06:00:53.948Z,101562.88
2019-04-05T06:03:25.813Z,101562.88
2019-04-05T06:06:04.094Z,101557.03
2019-04-05T06:08:30.758Z,101559.16
2019-04-05T06:11:02.520Z,101562.00
2019-04-05T06:13:34.388Z,101563.59
2019-04-05T06:16:06.891Z,101558.97
2019-04-05T06:18:39.536Z,101564.59
2019-04-05T06:21:11.111Z,101562.19
2019-04-05T06:23:42.676Z,101565.70
2019-04-05T06:26:14.309Z,101555.59
2019-04-05T06:28:46.166Z,101568.52
2019-04-05T06:31:17.965Z,101566.70
2019-04-05T06:33:49.693Z,101570.31
2019-04-05T06:36:21.244Z,101570.82
2019-04-05T06:38:52.907Z,101569.63
2019-04-05T06:41:24.557Z,101572.45
2019-04-05T06:43:56.436Z,101570.52
2019-04-05T06:46:27.879Z,101571.05
2019-04-05T06:48:59.740Z,101571.34
2019-04-05T06:51:31.398Z,101574.34
2019-04-05T06:54:03.478Z,101575.45
2019-04-05T06:56:35.937Z,101572.38
2019-04-05T06:59:09.753Z,101572.95
2019-04-05T07:01:41.205Z,101574.66
2019-04-05T07:04:13.065Z,101578.88
2019-04-05T07:06:44.724Z,101582.69
2019-04-05T07:09:16.589Z,101579.12
2019-04-05T07:11:48.343Z,101581.64
2019-04-05T07:14:20.205Z,101584.58
2019-04-05T07:16:52.553Z,101586.70
2019-04-05T07:19:24.143Z,101589.07
2019-04-05T07:21:55.895Z,101588.38
2019-04-05T07:24:27.348Z,101583.80
2019-04-05T07:26:59.015Z,101592.73
2019-04-05T07:29:30.396Z,101591.59
2019-04-05T07:32:02.121Z,101589.52
2019-04-05T07:34:33.572Z,101581.38
2019-04-05T07:37:05.236Z,101588.34
2019-04-05T07:39:37.089Z,101581.02
2019-04-05T07:42:08.545Z,101587.47
2019-04-05T07:44:40.308Z,101592.39
2019-04-05T07:47:11.759Z,101585.38
2019-04-05T07:49:43.341Z,101588.82
2019-04-05T07:52:15.068Z,101584.16
2019-04-05T07:54:46.861Z,101583.05
2019-04-05T07:57:18.596Z,101582.48
2019-04-05T07:59:50.086Z,101585.65
2019-04-05T08:02:21.711Z,101582.56
2019-04-05T08:04:54.763Z,101583.20
2019-04-05T08:07:29.634Z,101584.14
2019-04-05T08:10:02.999Z,101582.95
2019-04-05T08:12:34.374Z,101585.04
2019-04-05T08:15:06.527Z,101585.04
2019-04-05T08:17:39.315Z,101586.37
2019-04-05T08:20:11.085Z,101580.74
2019-04-05T08:22:42.848Z,101582.19
2019-04-05T08:25:14.315Z,101580.30
2019-04-05T08:27:46.164Z,101578.95
2019-04-05T08:30:17.821Z,101574.77
2019-04-05T08:32:49.486Z,101576.69
2019-04-05T08:35:21.243Z,101572.00
2019-04-05T08:37:52.997Z,101571.91
2019-04-05T08:40:24.655Z,101574.89
2019-04-05T08:42:56.731Z,101570.94
2019-04-05T08:45:28.186Z,101568.31
2019-04-05T08:47:59.936Z,101565.65
2019-04-05T08:50:31.328Z,101565.41
2019-04-05T08:53:02.947Z,101568.42
2019-04-05T08:55:34.806Z,101568.06
2019-04-05T08:58:06.470Z,101570.81
2019-04-05T09:00:38.431Z,101572.13
2019-04-05T09:03:11.924Z,101571.66
2019-04-05T09:05:43.896Z,101568.41
2019-04-05T09:08:15.455Z,101563.00
2019-04-05T09:10:47.115Z,101561.67
2019-04-05T09:13:18.864Z,101558.19
2019-04-05T09:15:50.527Z,101555.53
2019-04-05T09:18:23.363Z,101549.73
2019-04-05T09:20:55.002Z,101552.43
2019-04-05T09:23:26.727Z,101549.86
2019-04-05T09:25:58.194Z,101546.02
2019-04-05T09:28:30.042Z,101547.03
2019-04-05T09:31:01.598Z,101549.20
2019-04-05T09:33:33.254Z,101543.02
2019-04-05T09:36:04.653Z,101545.05
2019-04-05T09:38:36.366Z,101539.86
2019-04-05T09:41:07.793Z,101536.50
2019-04-05T09:43:39.491Z,101532.75
2019-04-05T09:46:11.238Z,101534.80
2019-04-05T09:48:42.901Z,101541.08
2019-04-05T09:51:14.832Z,101541.09
2019-04-05T09:53:46.415Z,101540.75
2019-04-05T09:56:18.072Z,101538.52
2019-04-05T09:58:49.950Z,101540.13
2019-04-05T10:01:21.705Z,101533.98
2019-04-05T10:03:53.352Z,101534.27
2019-04-05T10:06:24.914Z,101534.41
2019-04-05T10:08:56.566Z,101530.94
2019-04-05T10:11:28.232Z,101529.25
2019-04-05T10:14:00.090Z,101525.31
2019-04-05T10:16:31.643Z,101528.19
2019-04-05T10:19:03.405Z,101526.42
2019-04-05T10:21:34.902Z,101527.58
2019-04-05T10:24:06.720Z,101534.11
2019-04-05T10:26:38.397Z,101529.45
2019-04-05T10:29:10.133Z,101523.61
2019-04-05T10:31:41.901Z,101523.00
2019-04-05T10:34:13.451Z,101523.91
2019-04-05T10:36:45.109Z,101519.39
2019-04-05T10:39:16.869Z,101520.25
2019-04-05T10:41:48.428Z,101518.83
2019-04-05T10:44:20.392Z,101520.97
2019-04-05T10:46:52.903Z,101510.48
2019-04-05T10:49:24.634Z,101515.02
2019-04-05T10:51:56.125Z,101515.95
2019-04-05T10:54:27.839Z,101521.08
2019-04-05T10:56:59.407Z,101515.44
2019-04-05T10:59:31.167Z,101514.26
2019-04-05T11:02:02.934Z,101514.34
2019-04-05T11:04:34.674Z,101511.69
2019-04-05T11:07:06.343Z,101504.60
2019-04-05T11:09:38.298Z,101509.02
2019-04-05T11:12:09.956Z,101507.63
2019-04-05T11:14:41.716Z,101514.17
2019-04-05T11:17:13.375Z,101506.22
2019-04-05T11:19:45.133Z,101503.11
2019-04-05T11:22:20.194Z,101501.79
2019-04-05T11:24:50.137Z,101504.50
2019-04-05T11:27:22.976Z,101503.70
2019-04-05T11:29:54.565Z,101502.86
2019-04-05T11:32:26.295Z,101493.35
2019-04-05T11:34:57.844Z,101490.92
2019-04-05T11:37:29.603Z,101492.69
2019-04-05T11:40:01.473Z,101490.23
2019-04-05T11:42:33.303Z,101486.25
2019-04-05T11:45:05.808Z,101478.09
2019-04-05T11:47:37.742Z,101480.61
2019-04-05T11:50:10.576Z,101480.61
2019-04-05T11:52:41.947Z,101479.28
2019-04-05T11:55:13.386Z,101478.29
2019-04-05T11:57:44.822Z,101466.86
2019-04-05T12:00:32.922Z,101464.30
2019-04-05T12:03:18.167Z,101469.24
2019-04-05T12:05:49.611Z,101465.40
2019-04-05T12:08:21.092Z,101462.11
2019-04-05T12:10:52.786Z,101464.45
2019-04-05T12:13:24.164Z,101463.26
2019-04-05T12:15:58.006Z,101464.37
2019-04-05T12:18:28.616Z,101456.95
2019-04-05T12:21:00.812Z,101460.45
2019-04-05T12:23:33.555Z,101454.08
2019-04-05T12:26:05.323Z,101456.55
2019-04-05T12:28:36.642Z,101449.63
2019-04-05T12:31:08.136Z,101454.30
2019-04-05T12:33:39.600Z,101451.88
2019-04-05T12:36:11.172Z,101447.24
2019-04-05T12:38:42.545Z,101444.95
2019-04-05T12:41:13.971Z,101446.68
2019-04-05T12:43:45.694Z,101449.00
2019-04-05T12:46:17.172Z,101444.81
2019-04-05T12:48:48.615Z,101436.63
2019-04-05T12:51:20.171Z,101446.81
2019-04-05T12:53:51.635Z,101441.22
2019-04-05T12:56:26.209Z,101435.72
2019-04-05T12:58:56.732Z,101438.80
2019-04-05T13:01:28.066Z,101442.48
2019-04-05T13:04:00.510Z,101439.55
2019-04-05T13:06:32.008Z,101433.70
2019-04-05T13:09:05.590Z,101434.11
2019-04-05T13:11:37.428Z,101431.05
2019-04-05T13:14:08.926Z,101431.88
2019-04-05T13:16:40.343Z,101426.03
2019-04-05T13:19:11.905Z,101430.13
2019-04-05T13:21:43.363Z,101428.86
2019-04-05T13:24:14.789Z,101426.50
2019-04-05T13:26:46.260Z,101424.34
2019-04-05T13:29:19.668Z,101423.84
2019-04-05T13:31:50.802Z,101421.75
2019-04-05T13:34:25.489Z,101424.28
2019-04-05T13:36:55.358Z,101426.30
2019-04-05T13:39:27.556Z,101423.16
2019-04-05T13:42:01.777Z,101420.58
2019-04-05T13:44:33.080Z,101415.45
2019-04-05T13:47:08.076Z,101420.28
2019-04-05T13:49:38.543Z,101421.41
2019-04-05T13:52:12.023Z,101420.22
2019-04-05T13:54:44.123Z,101421.89
2019-04-05T13:57:15.580Z,101416.10
2019-04-05T13:59:47.240Z,101424.28
2019-04-05T14:02:21.056Z,101419.32
2019-04-05T14:04:53.853Z,101417.41
2019-04-05T14:07:25.354Z,101421.89
2019-04-05T14:09:56.803Z,101427.47
2019-04-05T14:12:31.095Z,101417.48
2019-04-05T14:15:01.267Z,101425.38
2019-04-05T14:17:32.652Z,101426.41
2019-04-05T14:20:04.859Z,101427.86
2019-04-05T14:22:36.242Z,101426.68
2019-04-05T14:25:07.852Z,101427.17
2019-04-05T14:27:40.333Z,101426.17
2019-04-05T14:30:13.617Z,101424.80
2019-04-05T14:32:45.028Z,101430.04
2019-04-05T14:35:16.971Z,101425.77
2019-04-05T14:37:48.439Z,101425.30
2019-04-05T14:40:19.894Z,101429.28
2019-04-05T14:42:51.281Z,101426.58
2019-04-05T14:45:22.697Z,101431.28
2019-04-05T14:47:57.710Z,101428.57
2019-04-05T14:50:28.207Z,101430.59
2019-04-05T14:53:01.727Z,101433.44
2019-04-05T14:55:33.431Z,101433.30
2019-04-05T14:58:06.015Z,101437.59
2019-04-05T15:00:37.652Z,101430.73
2019-04-05T15:03:09.015Z,101432.84
2019-04-05T15:05:40.454Z,101434.59
2019-04-05T15:08:11.917Z,101435.42
2019-04-05T15:10:43.377Z,101431.53
2019-04-05T15:13:14.851Z,101430.20
2019-04-05T15:15:46.371Z,101428.38
2019-04-05T15:18:19.549Z,101429.78
2019-04-05T15:20:50.916Z,101430.94
2019-04-05T15:23:22.271Z,101423.82
2019-04-05T15:25:53.765Z,101431.70
2019-04-05T15:28:25.322Z,101429.01
2019-04-05T15:30:56.759Z,101430.25
2019-04-05T15:33:28.449Z,101427.19
2019-04-05T15:36:02.839Z,101423.90
2019-04-05T15:38:34.157Z,101424.83
2019-04-05T15:41:05.657Z,101416.27
2019-04-05T15:43:37.070Z,101433.94
2019-04-05T15:46:08.533Z,101421.95
2019-04-05T15:48:39.885Z,101425.65
2019-04-05T15:51:11.235Z,101425.35
2019-04-05T15:53:42.691Z,101420.86
2019-04-05T15:56:14.147Z,101425.27
2019-04-05T15:58:45.601Z,101425.08
2019-04-05T16:01:17.104Z,101429.11
2019-04-05T16:03:48.508Z,101430.72
2019-04-05T16:06:20.159Z,101430.76
2019-04-05T16:08:51.617Z,101431.44
2019-04-05T16:11:23.118Z,101431.45
2019-04-05T16:13:54.572Z,101432.70
2019-04-05T16:16:26.589Z,101428.04
2019-04-05T16:18:58.360Z,101438.29
2019-04-05T16:21:29.838Z,101440.23
2019-04-05T16:24:01.274Z,101439.78
2019-04-05T16:26:32.718Z,101441.46
2019-04-05T16:29:04.113Z,101441.21
2019-04-05T16:31:35.532Z,101443.11
2019-04-05T16:34:06.986Z,101442.36
2019-04-05T16:36:38.653Z,101452.25
2019-04-05T16:39:11.616Z,101450.52
2019-04-05T16:41:43.131Z,101451.91
2019-04-05T16:44:14.483Z,101452.56
2019-04-05T16:46:45.854Z,101456.31
2019-04-05T16:49:17.325Z,101463.06
2019-04-05T16:51:48.814Z,101466.18
2019-04-05T16:54:20.234Z,101469.71
2019-04-05T16:56:51.704Z,101469.41
2019-04-05T16:59:23.345Z,101467.59
2019-04-05T17:01:56.818Z,101478.11
2019-04-05T17:04:27.888Z,101479.69
2019-04-05T17:06:59.581Z,101479.66
2019-04-05T17:09:31.014Z,101484.43
2019-04-05T17:12:02.442Z,101480.80
2019-04-05T17:14:33.902Z,101481.61
2019-04-05T17:17:05.264Z,101486.52
2019-04-05T17:19:36.728Z,101490.98
2019-04-05T17:22:08.089Z,101486.30
2019-04-05T17:24:39.771Z,101488.22
2019-04-05T17:27:10.995Z,101485.14
2019-04-05T17:29:42.423Z,101480.95
2019-04-05T17:32:13.916Z,101482.93
2019-04-05T17:34:45.294Z,101491.75
2019-04-05T17:37:16.698Z,101494.29
2019-04-05T17:39:48.181Z,101489.59
2019-04-05T17:42:19.589Z,101498.30
2019-04-05T17:44:50.935Z,101494.16
2019-04-05T17:47:22.309Z,101493.11
2019-04-05T17:49:53.752Z,101494.23
2019-04-05T17:52:25.098Z,101493.28
2019-04-05T17:54:56.562Z,101493.25
2019-04-05T17:57:28.007Z,101493.55
2019-04-05T17:59:59.458Z,101492.04
2019-04-05T18:02:30.914Z,101494.92
2019-04-05T18:05:02.371Z,101489.48
2019-04-05T18:07:34.042Z,101489.34
2019-04-05T18:10:06.286Z,101490.95
2019-04-05T18:12:37.755Z,101488.65
2019-04-05T18:15:09.125Z,101491.13
2019-04-05T18:17:40.551Z,101487.85
2019-04-05T18:20:12.008Z,101487.65
2019-04-05T18:22:43.468Z,101491.73
2019-04-05T18:25:14.813Z,101488.75
2019-04-05T18:27:46.382Z,101486.75
2019-04-05T18:30:17.843Z,101490.02
2019-04-05T18:32:49.272Z,101488.50
2019-04-05T18:35:22.278Z,101487.08
2019-04-05T18:37:53.737Z,101493.67
2019-04-05T18:40:25.112Z,101488.17
2019-04-05T18:42:56.737Z,101488.85
2019-04-05T18:45:28.121Z,101491.25
2019-04-05T18:47:59.538Z,101491.05
2019-04-05T18:50:31.041Z,101491.83
2019-04-05T18:53:02.426Z,101494.42
2019-04-05T18:55:33.913Z,101492.59
2019-04-05T18:58:05.490Z,101491.42
2019-04-05T19:00:36.899Z,101496.44
2019-04-05T19:03:08.468Z,101494.37
2019-04-05T19:05:40.055Z,101489.47
2019-04-05T19:08:11.473Z,101494.48
2019-04-05T19:10:42.925Z,101494.80
2019-04-05T19:13:14.405Z,101501.72
2019-04-05T19:15:46.027Z,101501.76
2019-04-05T19:18:17.451Z,101504.75
2019-04-05T19:20:48.944Z,101504.06
2019-04-05T19:23:20.395Z,101509.16
2019-04-05T19:25:51.849Z,101513.13
2019-04-05T19:28:23.297Z,101508.98
2019-04-05T19:48:48.852Z,101510.52
2019-04-05T19:51:20.307Z,101509.89
2019-04-05T19:54:00.825Z,101509.05
2019-04-05T19:56:24.844Z,101507.52
2019-04-05T19:58:56.232Z,101508.18
2019-04-05T20:01:27.629Z,101509.70
2019-04-05T20:03:59.251Z,101503.17
2019-04-05T20:06:30.875Z,101515.55
2019-04-05T20:09:02.285Z,101516.98
2019-04-05T20:11:35.108Z,101521.64
2019-04-05T20:14:06.571Z,101518.39
2019-04-05T20:16:38.028Z,101517.45
2019-04-05T20:19:09.581Z,101518.84
2019-04-05T20:21:41.044Z,101518.44
2019-04-05T20:24:14.573Z,101518.15
2019-04-05T20:26:46.161Z,101520.52
2019-04-05T20:29:17.632Z,101528.87
2019-04-05T20:31:49.051Z,101532.91
2019-04-05T20:34:20.439Z,101532.67
2019-04-05T20:36:51.933Z,101532.05
2019-04-05T20:39:23.319Z,101535.72
2019-04-05T20:41:54.684Z,101537.55
2019-04-05T20:44:26.149Z,101539.96
2019-04-05T20:46:57.526Z,101539.71
2019-04-05T20:49:28.960Z,101535.95
2019-04-05T20:52:00.476Z,101539.17
2019-04-05T20:54:31.907Z,101537.20
2019-04-05T20:57:03.329Z,101534.34
2019-04-05T20:59:34.766Z,101538.09
2019-04-05T21:02:06.237Z,101544.28
2019-04-05T21:04:37.609Z,101540.29
2019-04-05T21:07:09.023Z,101541.06
2019-04-05T21:09:40.579Z,101542.82
2019-04-05T21:12:12.036Z,101542.45
2019-04-05T21:14:43.588Z,101541.27
2019-04-05T21:17:15.033Z,101543.62
2019-04-05T21:19:46.492Z,101542.06
2019-04-05T21:22:17.892Z,101544.86
2019-04-05T21:24:49.301Z,101543.00
2019-04-05T21:27:20.746Z,101537.58
2019-04-05T21:29:52.225Z,101532.44
2019-04-05T21:32:23.632Z,101534.78
2019-04-05T21:34:55.105Z,101534.91
2019-04-05T21:37:28.721Z,101538.18
2019-04-05T21:40:00.168Z,101538.44
2019-04-05T21:42:31.821Z,101537.77
2019-04-05T21:45:03.317Z,101543.58
2019-04-05T21:47:34.733Z,101543.05
2019-04-05T21:50:07.398Z,101539.14
2019-04-05T21:52:38.875Z,101540.22
2019-04-05T21:55:11.835Z,101543.08
2019-04-05T21:57:43.429Z,101538.83
2019-04-05T22:00:31.428Z,101544.25
2019-04-05T22:03:04.734Z,101546.07
2019-04-05T22:05:37.318Z,101543.58
2019-04-05T22:08:08.997Z,101546.59
2019-04-05T22:10:41.660Z,101548.00
2019-04-05T22:13:13.335Z,101541.14
2019-04-05T22:15:44.921Z,101542.08
2019-04-05T22:18:16.539Z,101542.59
2019-04-05T22:20:49.230Z,101542.25
2019-04-05T22:23:20.882Z,101543.73
2019-04-05T22:25:52.550Z,101543.39
2019-04-05T22:28:24.197Z,101541.27
2019-04-05T22:30:55.865Z,101542.77
2019-04-05T22:33:27.739Z,101538.94
2019-04-05T22:35:59.377Z,101537.88
2019-04-05T22:38:31.060Z,101543.25
2019-04-05T22:41:02.728Z,101540.55
2019-04-05T22:43:34.310Z,101541.58
2019-04-05T22:46:05.890Z,101544.24
2019-04-05T22:48:37.585Z,101539.79
2019-04-05T22:51:09.277Z,101539.38
2019-04-05T22:53:40.947Z,101544.27
2019-04-05T22:56:12.652Z,101540.02
2019-04-05T22:58:44.334Z,101541.42
2019-04-05T23:01:15.927Z,101544.53
2019-04-05T23:03:47.610Z,101547.64
2019-04-05T23:06:19.294Z,101543.09
2019-04-05T23:08:50.933Z,101545.72
2019-04-05T23:11:22.605Z,101551.91
2019-04-05T23:13:54.241Z,101558.44
2019-04-05T23:16:25.815Z,101550.87
2019-04-05T23:18:57.485Z,101550.42
2019-04-05T23:21:29.133Z,101553.53
2019-04-05T23:24:00.813Z,101550.27
2019-04-05T23:26:32.426Z,101552.17
2019-04-05T23:29:04.086Z,101556.23
2019-04-05T23:31:35.737Z,101559.84
2019-04-05T23:34:07.403Z,101560.70
2019-04-05T23:36:39.196Z,101559.62
2019-04-05T23:39:10.817Z,101557.81
2019-04-05T23:41:42.478Z,101561.33
2019-04-05T23:44:14.146Z,101558.67
2019-04-05T23:46:45.830Z,101562.13
2019-04-05T23:49:17.461Z,101562.16
2019-04-05T23:51:49.094Z,101558.73
2019-04-05T23:54:20.686Z,101563.17
2019-04-05T23:56:52.339Z,101557.08
2019-04-05T23:59:24.962Z,101563.23
